ADDS METAR Data INFO
IDs: Format: Raw Decoded Include TAF

Data at: 2323 UTC 19 Oct 2017

KDWH 192253Z 11004KT 10SM SCT110 27/16 A3007 RMK AO2 SLP180 T02670156
KDWH 192153Z 13007KT 10SM CLR 27/16 A3007 RMK AO2 SLP179 T02720156
KDWH 192053Z 10008KT 10SM SCT049 29/16 A3007 RMK AO2 SLP181 T02890161 56019
KDWH 191953Z 12009KT 10SM FEW047 28/16 A3008 RMK AO2 SLP184 T02780161
KDWH 191853Z 10008KT 10SM SCT043 29/17 A3010 RMK AO2 SLP190 T02890172
KDWH 191753Z VRB05KT 10SM CLR 28/17 A3013 RMK AO2 SLP200 T02780167 10278 20178 58008
KDWH 191653Z 11007KT 060V150 10SM FEW035 27/17 A3015 RMK AO2 SLP205 T02720172
KDWH 191553Z 10007KT 10SM CLR 26/18 A3015 RMK AO2 SLP209 T02560178
KDWH 191453Z 07004KT 10SM CLR 23/19 A3015 RMK AO2 SLP208 T02330189 51011
KDWH 191353Z 07006KT 9SM CLR 20/17 A3015 RMK AO2 SLP205 T02000172
KDWH 191253Z 08004KT 8SM FEW038 18/16 A3013 RMK AO2 SLP201 T01780161
KDWH 191153Z AUTO 00000KT 9SM SCT039 18/16 A3012 RMK AO2 SLP197 T01780161 10183 20144 53005
KDWH 191053Z AUTO 05003KT 8SM BKN037 18/17 A3012 RMK AO2 SLP196 T01830167
KDWH 190953Z AUTO 00000KT 4SM BR BKN034 16/16 A3011 RMK AO2 SLP192 T01610156
KDWH 190912Z AUTO 01003KT 4SM BR OVC033 16/16 A3011 RMK AO2 T01610156
KDWH 190853Z AUTO 00000KT 2 1/2SM BR BKN032 16/15 A3011 RMK AO2 SLP192 T01560150 58005
KDWH 190844Z AUTO 00000KT 2SM BR SCT032 15/15 A3011 RMK AO2 T01500150
KDWH 190823Z AUTO 00000KT 3/4SM BR FEW032 15/15 A3011 RMK AO2 T01500150
KDWH 190812Z AUTO 00000KT 1SM BR CLR 16/15 A3011 RMK AO2 T01560150
KDWH 190804Z AUTO 00000KT 1/4SM FG CLR 15/14 A3011 RMK AO2 T01500144
KDWH 190753Z AUTO 00000KT 3/4SM BR CLR 16/16 A3012 RMK AO2 SLP195 T01560156
KDWH 190744Z AUTO 00000KT 1SM BR CLR 16/16 A3012 RMK AO2 T01610156
KDWH 190737Z AUTO 00000KT 1/2SM FG VV003 16/15 A3012 RMK AO2 T01560150
KDWH 190727Z AUTO 00000KT 1/4SM FG CLR 16/15 A3012 RMK AO2 T01560150
KDWH 190703Z AUTO 00000KT 3/4SM BR CLR 15/14 A3012 RMK AO2 T01500144
KDWH 190653Z AUTO 00000KT 2 1/2SM BR CLR 16/16 A3012 RMK AO2 SLP196 T01560156
KDWH 190643Z AUTO 00000KT 1SM BR CLR 16/15 A3012 RMK AO2 T01560150
KDWH 190637Z AUTO 10003KT 1/4SM FG CLR 15/15 A3011 RMK AO2 T01500150
KDWH 190556Z AUTO 00000KT 1/4SM FG VV006 16/16 A3012 RMK AO2 T01560156
KDWH 190553Z AUTO 00000KT 1/2SM FG CLR 16/16 A3012 RMK AO2 SLP198 T01610156 10244 20156 402830083 58002
KDWH 190544Z AUTO 00000KT 3/4SM BR CLR 17/16 A3012 RMK AO2 T01670161
KDWH 190529Z AUTO 07003KT 2SM BR CLR 17/16 A3013 RMK AO2 T01720161
KDWH 190519Z AUTO 00000KT 1 3/4SM BR CLR 17/16 A3013 RMK AO2 T01720161
KDWH 190453Z AUTO 00000KT 4SM BR CLR 18/17 A3013 RMK AO2 SLP200 T01780167
KDWH 190353Z AUTO 13004KT 10SM FEW038 21/17 A3013 RMK AO2 SLP201 T02060172
KDWH 190253Z 12003KT 10SM CLR 20/16 A3013 RMK AO2 SLP201 T02000161 51013
KDWH 190153Z 12003KT 9SM CLR 21/16 A3013 RMK AO2 SLP200 T02110161
KDWH 190053Z 11004KT 9SM CLR 22/15 A3011 RMK AO2 SLP193 T02170150
KDWH 182353Z 12004KT 10SM CLR 24/14 A3009 RMK AO2 SLP188 T02440144 10283 20244 55005
KDWH 182253Z 12004KT 10SM CLR 27/13 A3009 RMK AO2 SLP186 T02720133
KDWH 182153Z 00000KT 10SM CLR 28/12 A3009 RMK AO2 SLP188 T02780122
KDWH 182053Z VRB04KT 10SM CLR 28/12 A3011 RMK AO2 SLP193 T02780117 56021
KDWH 181953Z 09003KT 10SM CLR 27/12 A3012 RMK AO2 SLP196 T02720117
KDWH 181853Z 00000KT 10SM CLR 26/12 A3014 RMK AO2 SLP206 T02610117
KDWH 181753Z 00000KT 10SM CLR 26/11 A3017 RMK AO2 SLP214 T02560111 10256 20083 58009
KDWH 181653Z VRB03KT 10SM CLR 24/12 A3019 RMK AO2 SLP220 T02440122
KDWH 181553Z 00000KT 10SM CLR 23/11 A3020 RMK AO2 SLP224 T02280111
KDWH 181453Z 00000KT 10SM CLR 19/12 A3020 RMK AO2 SLP224 T01890117 51015
KDWH 181353Z 00000KT 10SM CLR 14/11 A3018 RMK AO2 SLP219 T01440111
KDWH 181253Z 00000KT 8SM CLR 09/09 A3017 RMK AO2 SLP214 T00940089
KDWH 181153Z AUTO 00000KT 8SM CLR 09/08 A3015 RMK AO2 SLP208 T00940083 10111 20089 56001